Claiborne, Louisiana
Current Conditions -  °F | °C
As of 3:28 PM on Friday 19 Dec 2014 (Local Time) from KASD Reporting Station
Heavy Rain Heavy Rain  
Wind Chill: 44°   Ceiling: 500
Heat Index: 49°   Visibility: 2mi
Dew Point: 46°   Wind: 13mph
Humidity: 90%   Direction: 20°NNE
Pressure: 30.08"   Gusts: NA
Location:  30.4598°N, 90.1271°W
Report Text: KASD 192128Z AUTO 02011KT 2SM +RA BR BKN005 OVC011 09/08 A3008 RMK AO2 P0012 T00940078
Loading
Personal Weather Stations






























Interactive Weather Map New forecast layout! Learn more

10-Day Weather Forecast

Advertisements
Track Severe Weather on mobile